Snook, Texas
Current Conditions -  °F | °C
As of 6:53 PM on Sunday 23 Nov 2014 (Local Time) from KCLL Reporting Station
Clear Clear  
Wind Chill: 65°   Ceiling: Unl
Heat Index: 65°   Visibility: 10mi
Dew Point: 50°   Wind: 8mph
Humidity: 58%   Direction: 260°W
Pressure: 29.59"   Gusts: NA
Location:  30.49°N, 96.46°W
Report Text: KCLL 240053Z 26007KT 10SM CLR 18/10 A2959 RMK AO2 SLP016 T01830100 $
Loading
Personal Weather Stations






























Interactive Weather Map New forecast layout! Learn more

10-Day Weather Forecast

Advertisements
Track Severe Weather on mobile